Time;durP1;ratioP1;P1;durP2;ratioP2;P2;SDS_P1;SDS_P2;PMS_P1;PMS_P2;Temp;Humidity;BMP_temperature;BMP_pressure;BME280_temperature;BME280_humidity;BME280_pressure;Samples;Min_cycle;Max_cycle;Signal;HPM_P1;HPM_P2
2021/07/23 00:01:47;;;;;;;;;;;19.60;89.10;;;;;;5029085;28;19910;-88
2021/07/23 00:04:13;;;;;;;;;;;19.60;89.30;;;;;;5028836;28;19920;-88
2021/07/23 00:06:38;;;;;;;;;;;19.60;89.30;;;;;;5027822;28;19910;-88
2021/07/23 00:09:04;;;;;;;;;;;19.60;89.40;;;;;;5028357;28;19910;-88
2021/07/23 00:11:29;;;;;;;;;;;19.50;89.40;;;;;;5028439;28;20294;-88
2021/07/23 00:13:55;;;;;;;;;;;19.50;89.70;;;;;;5031452;28;19910;-88
2021/07/23 00:16:20;;;;;;;;;;;19.50;89.80;;;;;;5024634;28;19910;-88
2021/07/23 00:18:46;;;;;;;;;;;19.40;90.00;;;;;;5018591;28;19933;-87
2021/07/23 00:21:11;;;;;;;;;;;19.40;90.00;;;;;;5017865;28;19937;-88
2021/07/23 00:23:37;;;;;;;;;;;19.40;90.10;;;;;;5019176;28;19909;-88
2021/07/23 00:26:08;;;;;;;;;;;19.30;90.10;;;;;;5015103;28;19913;-88
2021/07/23 00:28:34;;;;;;;;;;;19.30;90.20;;;;;;5014286;28;19910;-88
2021/07/23 00:30:59;;;;;;;;;;;19.20;90.30;;;;;;5013567;28;19910;-88
2021/07/23 00:33:25;;;;;;;;;;;19.20;90.40;;;;;;5015279;28;19914;-88
2021/07/23 00:35:50;;;;;;;;;;;19.10;90.50;;;;;;5015528;28;19933;-88
2021/07/23 00:38:16;;;;;;;;;;;19.10;90.50;;;;;;5013910;28;20394;-88
2021/07/23 00:40:41;;;;;;;;;;;19.10;90.70;;;;;;5013495;28;19913;-88
2021/07/23 00:43:07;;;;;;;;;;;19.10;90.70;;;;;;5013875;28;20362;-88
2021/07/23 00:45:32;;;;;;;;;;;19.10;90.70;;;;;;5013952;28;19913;-89
2021/07/23 00:48:04;;;;;;;;;;;19.10;90.80;;;;;;5013667;28;19916;-88
2021/07/23 00:50:30;;;;;;;;;;;19.10;90.80;;;;;;5014553;28;19917;-88
2021/07/23 00:52:56;;;;;;;;;;;19.10;90.80;;;;;;5013634;28;19916;-89
2021/07/23 00:55:23;;;;;;;;;;;19.10;90.80;;;;;;5013685;28;19913;-88
2021/07/23 00:57:49;;;;;;;;;;;19.00;90.80;;;;;;5013803;28;19913;-88
2021/07/23 01:00:14;;;;;;;;;;;19.00;90.90;;;;;;5013016;28;19916;-88
2021/07/23 01:02:40;;;;;;;;;;;19.00;91.00;;;;;;5013522;28;19913;-88
2021/07/23 01:05:06;;;;;;;;;;;19.00;91.00;;;;;;5013452;28;19914;-88
2021/07/23 01:07:31;;;;;;;;;;;18.90;91.10;;;;;;5013263;28;19914;-88
2021/07/23 01:10:00;;;;;;;;;;;18.90;91.10;;;;;;5014143;28;19913;-88
2021/07/23 01:12:27;;;;;;;;;;;18.90;91.10;;;;;;5013200;28;20008;-88
2021/07/23 01:14:53;;;;;;;;;;;18.90;91.10;;;;;;5013250;28;19909;-88
2021/07/23 01:17:18;;;;;;;;;;;18.90;91.20;;;;;;5014441;28;19924;-88
2021/07/23 01:20:02;;;;;;;;;;;18.80;91.30;;;;;;5012661;28;20354;-88
2021/07/23 01:22:29;;;;;;;;;;;18.80;91.30;;;;;;5013031;28;20291;-88
2021/07/23 01:24:55;;;;;;;;;;;18.80;91.40;;;;;;5013169;28;20008;-88
2021/07/23 01:27:22;;;;;;;;;;;18.80;91.50;;;;;;5013182;28;19933;-88
2021/07/23 01:29:47;;;;;;;;;;;18.80;91.50;;;;;;5012388;28;19917;-88
2021/07/23 01:32:13;;;;;;;;;;;18.80;91.40;;;;;;5012918;28;20298;-87
2021/07/23 01:34:39;;;;;;;;;;;18.80;91.40;;;;;;5012889;28;20004;-88
2021/07/23 01:37:05;;;;;;;;;;;18.70;91.50;;;;;;5013017;28;19975;-88
2021/07/23 01:39:32;;;;;;;;;;;18.70;91.60;;;;;;5013513;28;20369;-88
2021/07/23 01:41:57;;;;;;;;;;;18.70;91.60;;;;;;5014479;28;19913;-87
2021/07/23 01:44:23;;;;;;;;;;;18.70;91.70;;;;;;5012660;28;20029;-88
2021/07/23 01:46:48;;;;;;;;;;;18.70;91.80;;;;;;5014121;28;20244;-88
2021/07/23 01:49:13;;;;;;;;;;;18.60;91.80;;;;;;5012016;28;19996;-88
2021/07/23 01:51:39;;;;;;;;;;;18.60;92.20;;;;;;5012470;28;20252;-88
2021/07/23 01:54:05;;;;;;;;;;;18.60;91.90;;;;;;5012613;28;19964;-88
2021/07/23 01:56:30;;;;;;;;;;;18.60;92.00;;;;;;5012396;28;19959;-88
2021/07/23 01:58:56;;;;;;;;;;;18.60;92.10;;;;;;5011958;28;19916;-88
2021/07/23 02:01:21;;;;;;;;;;;18.50;92.10;;;;;;5012437;28;19913;-88
2021/07/23 02:03:47;;;;;;;;;;;18.60;92.20;;;;;;5012330;28;19920;-88
2021/07/23 02:06:12;;;;;;;;;;;18.50;92.20;;;;;;5012332;28;19917;-88
2021/07/23 02:08:38;;;;;;;;;;;18.50;92.20;;;;;;5012373;28;19910;-88
2021/07/23 02:11:03;;;;;;;;;;;18.40;92.40;;;;;;5011740;28;19952;-87
2021/07/23 02:13:29;;;;;;;;;;;18.40;92.50;;;;;;5013416;28;19909;-88
2021/07/23 02:15:55;;;;;;;;;;;18.40;92.60;;;;;;5013425;28;19917;-88
2021/07/23 02:18:20;;;;;;;;;;;18.40;92.60;;;;;;5010822;28;19918;-88
2021/07/23 02:20:45;;;;;;;;;;;18.40;92.50;;;;;;5012007;28;19940;-88
2021/07/23 02:23:11;;;;;;;;;;;18.30;92.60;;;;;;5011997;28;19967;-88
2021/07/23 02:25:36;;;;;;;;;;;18.40;92.60;;;;;;5012098;28;19913;-88
2021/07/23 02:28:03;;;;;;;;;;;18.40;92.70;;;;;;5011827;28;19960;-88
2021/07/23 02:30:29;;;;;;;;;;;18.30;92.70;;;;;;5011520;28;19913;-88
2021/07/23 02:32:54;;;;;;;;;;;18.40;92.70;;;;;;5011958;28;20317;-88
2021/07/23 02:35:20;;;;;;;;;;;18.30;92.80;;;;;;5011889;28;19996;-88
2021/07/23 02:37:45;;;;;;;;;;;18.20;93.00;;;;;;5011783;28;19910;-88
2021/07/23 02:40:11;;;;;;;;;;;18.20;93.00;;;;;;5012232;28;20131;-88
2021/07/23 02:42:36;;;;;;;;;;;18.20;93.10;;;;;;5011677;28;20029;-88
2021/07/23 02:45:02;;;;;;;;;;;18.20;93.10;;;;;;5011750;28;20362;-88
2021/07/23 02:47:27;;;;;;;;;;;18.20;93.10;;;;;;5011671;28;19910;-88
2021/07/23 02:49:53;;;;;;;;;;;18.10;93.20;;;;;;5011068;28;19913;-88
2021/07/23 02:52:18;;;;;;;;;;;18.10;93.30;;;;;;5011582;28;19913;-88
2021/07/23 02:54:44;;;;;;;;;;;18.00;93.40;;;;;;5011729;28;20374;-88
2021/07/23 02:57:09;;;;;;;;;;;18.00;93.60;;;;;;5011516;28;19916;-88
2021/07/23 02:59:35;;;;;;;;;;;18.00;93.70;;;;;;5011012;28;19916;-88
2021/07/23 03:02:00;;;;;;;;;;;18.00;93.60;;;;;;5012807;28;20365;-88
2021/07/23 03:04:26;;;;;;;;;;;18.00;93.60;;;;;;5011426;28;19913;-88
2021/07/23 03:06:51;;;;;;;;;;;18.00;93.60;;;;;;5011767;28;19994;-88
2021/07/23 03:09:17;;;;;;;;;;;18.00;93.70;;;;;;5011956;28;19909;-88
2021/07/23 03:11:42;;;;;;;;;;;18.00;93.70;;;;;;5011690;28;20286;-88
2021/07/23 03:14:08;;;;;;;;;;;18.00;93.60;;;;;;5012965;28;19916;-88
2021/07/23 03:16:34;;;;;;;;;;;18.00;93.70;;;;;;5011470;28;19914;-88
2021/07/23 03:19:00;;;;;;;;;;;18.00;93.70;;;;;;5011690;28;19917;-88
2021/07/23 03:21:25;;;;;;;;;;;17.90;93.90;;;;;;5011684;28;20286;-88
2021/07/23 03:23:51;;;;;;;;;;;17.80;94.00;;;;;;5011407;28;20501;-89
2021/07/23 03:26:16;;;;;;;;;;;17.80;94.00;;;;;;5011450;28;19910;-88
2021/07/23 03:28:42;;;;;;;;;;;17.80;94.10;;;;;;5011495;28;19917;-88
2021/07/23 03:31:10;;;;;;;;;;;17.70;94.30;;;;;;5012755;28;19949;-88
2021/07/23 03:33:36;;;;;;;;;;;17.70;94.30;;;;;;5012687;28;20354;-88
2021/07/23 03:36:01;;;;;;;;;;;17.70;94.30;;;;;;5012563;28;19920;-88
2021/07/23 03:38:27;;;;;;;;;;;17.70;94.40;;;;;;5011379;28;19910;-88
2021/07/23 03:40:52;;;;;;;;;;;17.70;94.40;;;;;;5011398;28;19992;-88
2021/07/23 03:43:18;;;;;;;;;;;17.70;94.40;;;;;;5011377;28;20355;-88
2021/07/23 03:45:43;;;;;;;;;;;17.70;94.50;;;;;;5011329;28;19967;-88
2021/07/23 03:48:09;;;;;;;;;;;17.70;94.40;;;;;;5011208;28;19916;-88
2021/07/23 03:50:34;;;;;;;;;;;17.70;94.50;;;;;;5011661;28;19909;-88
2021/07/23 03:53:00;;;;;;;;;;;17.70;94.50;;;;;;5015115;28;20286;-88
2021/07/23 03:55:25;;;;;;;;;;;17.60;94.60;;;;;;5014997;28;19917;-89
2021/07/23 03:57:51;;;;;;;;;;;17.60;94.80;;;;;;5014895;28;20004;-88
2021/07/23 04:00:17;;;;;;;;;;;17.60;94.80;;;;;;5016074;28;20415;-88
2021/07/23 04:02:42;;;;;;;;;;;17.50;95.20;;;;;;5014735;28;19909;-88
2021/07/23 04:05:08;;;;;;;;;;;17.60;94.80;;;;;;5014618;28;20282;-88
2021/07/23 04:07:33;;;;;;;;;;;17.50;95.00;;;;;;5014634;28;19910;-89
2021/07/23 04:10:00;;;;;;;;;;;17.50;95.00;;;;;;5014706;28;19910;-88
2021/07/23 04:12:26;;;;;;;;;;;17.50;95.00;;;;;;5014668;28;19992;-89
2021/07/23 04:14:51;;;;;;;;;;;17.60;95.00;;;;;;5014564;28;19952;-88
2021/07/23 04:17:17;;;;;;;;;;;17.50;95.00;;;;;;5014467;28;19921;-88
2021/07/23 04:19:42;;;;;;;;;;;17.50;95.20;;;;;;5015783;28;20338;-89
2021/07/23 04:22:08;;;;;;;;;;;17.50;95.20;;;;;;5015678;28;20270;-88
2021/07/23 04:24:33;;;;;;;;;;;17.50;95.20;;;;;;5014143;28;19919;-87
2021/07/23 04:26:59;;;;;;;;;;;17.50;95.30;;;;;;5014389;28;19916;-88
2021/07/23 04:29:25;;;;;;;;;;;17.50;95.20;;;;;;5015782;28;20305;-88
2021/07/23 04:31:50;;;;;;;;;;;17.50;95.20;;;;;;5015481;28;19959;-89
2021/07/23 04:34:16;;;;;;;;;;;17.50;95.30;;;;;;5015658;28;19909;-88
2021/07/23 04:36:41;;;;;;;;;;;17.50;95.30;;;;;;5014494;28;19913;-88
2021/07/23 04:39:07;;;;;;;;;;;17.50;95.30;;;;;;5014103;28;19917;-88
2021/07/23 04:41:32;;;;;;;;;;;17.40;95.50;;;;;;5014073;28;20004;-89
2021/07/23 04:43:58;;;;;;;;;;;17.50;95.50;;;;;;5015284;28;19963;-87
2021/07/23 04:46:24;;;;;;;;;;;17.60;95.40;;;;;;5013921;28;19910;-88
2021/07/23 04:48:49;;;;;;;;;;;17.50;95.50;;;;;;5014000;28;19909;-88
2021/07/23 04:51:15;;;;;;;;;;;17.50;95.40;;;;;;5014141;28;19910;-88
2021/07/23 04:53:40;;;;;;;;;;;17.50;95.40;;;;;;5014115;28;19957;-88
2021/07/23 04:56:07;;;;;;;;;;;17.60;95.50;;;;;;5013807;28;20012;-88
2021/07/23 04:58:32;;;;;;;;;;;17.50;95.60;;;;;;5013798;28;19909;-88
2021/07/23 05:00:58;;;;;;;;;;;17.60;95.60;;;;;;5014880;28;20012;-88
2021/07/23 05:03:24;;;;;;;;;;;17.70;95.50;;;;;;5014998;28;19910;-88
2021/07/23 05:05:50;;;;;;;;;;;17.60;95.50;;;;;;5013583;28;19913;-88
2021/07/23 05:08:16;;;;;;;;;;;17.60;95.40;;;;;;5013473;28;19909;-88
2021/07/23 05:10:42;;;;;;;;;;;17.70;95.50;;;;;;5014823;28;20373;-88
2021/07/23 05:13:08;;;;;;;;;;;17.70;95.50;;;;;;5014664;28;19914;-88
2021/07/23 05:15:34;;;;;;;;;;;17.70;95.50;;;;;;5013432;28;19910;-88
2021/07/23 05:18:00;;;;;;;;;;;17.70;95.40;;;;;;5015071;28;20027;-88
2021/07/23 05:20:25;;;;;;;;;;;17.80;95.40;;;;;;5014044;28;19925;-88
2021/07/23 05:22:51;;;;;;;;;;;17.80;95.40;;;;;;5013316;28;19928;-89
2021/07/23 05:25:17;;;;;;;;;;;17.80;95.50;;;;;;5013272;28;19917;-90
2021/07/23 05:27:42;;;;;;;;;;;17.80;95.40;;;;;;5013202;28;19916;-89
2021/07/23 05:30:08;;;;;;;;;;;17.80;95.30;;;;;;5012440;28;19909;-88
2021/07/23 05:32:34;;;;;;;;;;;17.90;95.20;;;;;;5013276;28;19913;-87
2021/07/23 05:34:59;;;;;;;;;;;17.90;95.20;;;;;;5012764;28;20384;-87
2021/07/23 05:37:25;;;;;;;;;;;17.90;95.10;;;;;;5012721;28;19913;-87
2021/07/23 05:39:50;;;;;;;;;;;18.00;95.00;;;;;;5012287;28;19949;-88
2021/07/23 05:42:16;;;;;;;;;;;17.90;95.10;;;;;;5012741;28;20389;-87
2021/07/23 05:44:41;;;;;;;;;;;18.00;95.00;;;;;;5013842;28;20286;-87
2021/07/23 05:47:07;;;;;;;;;;;17.90;95.00;;;;;;5014060;28;19910;-88
2021/07/23 05:49:32;;;;;;;;;;;18.00;95.00;;;;;;5013271;28;19916;-87
2021/07/23 05:51:58;;;;;;;;;;;18.00;94.90;;;;;;5013673;28;19910;-88
2021/07/23 05:54:23;;;;;;;;;;;18.00;94.90;;;;;;5012505;28;20314;-87
2021/07/23 05:56:49;;;;;;;;;;;18.00;94.80;;;;;;5012356;28;19940;-87
2021/07/23 05:59:15;;;;;;;;;;;17.90;94.90;;;;;;5011821;28;19914;-88
2021/07/23 06:01:40;;;;;;;;;;;18.00;94.90;;;;;;5012340;28;19964;-88
2021/07/23 06:04:06;;;;;;;;;;;18.00;94.90;;;;;;5012210;28;19914;-87
2021/07/23 06:06:32;;;;;;;;;;;18.10;95.00;;;;;;5014280;28;19920;-88
2021/07/23 06:08:59;;;;;;;;;;;18.10;94.90;;;;;;5012031;28;19941;-87
2021/07/23 06:11:25;;;;;;;;;;;18.20;94.80;;;;;;5012319;28;19917;-87
2021/07/23 06:13:51;;;;;;;;;;;18.20;94.80;;;;;;5011875;28;19913;-88
2021/07/23 06:16:17;;;;;;;;;;;18.20;95.00;;;;;;5012109;28;19910;-88
2021/07/23 06:18:42;;;;;;;;;;;18.20;95.00;;;;;;5012235;28;19980;-87
2021/07/23 06:21:08;;;;;;;;;;;18.30;95.00;;;;;;5011735;28;20335;-87
2021/07/23 06:23:34;;;;;;;;;;;18.30;94.80;;;;;;5012993;28;20035;-87
2021/07/23 06:26:03;;;;;;;;;;;18.30;94.90;;;;;;5011576;28;20255;-88
2021/07/23 06:28:29;;;;;;;;;;;18.40;94.80;;;;;;5011898;28;19910;-88
2021/07/23 06:31:01;;;;;;;;;;;18.40;94.80;;;;;;5011318;28;20387;-87
2021/07/23 06:33:27;;;;;;;;;;;18.40;94.60;;;;;;5014309;28;20318;-87
2021/07/23 06:35:52;;;;;;;;;;;18.50;94.60;;;;;;5011704;28;19914;-87
2021/07/23 06:38:18;;;;;;;;;;;18.50;94.50;;;;;;5013275;28;20016;-88
2021/07/23 06:40:43;;;;;;;;;;;18.60;94.50;;;;;;5011190;28;19918;-88
2021/07/23 06:43:09;;;;;;;;;;;18.60;94.30;;;;;;5011629;28;19916;-88
2021/07/23 06:45:35;;;;;;;;;;;18.60;94.30;;;;;;5013064;28;20020;-87
2021/07/23 06:48:01;;;;;;;;;;;18.60;94.30;;;;;;5011520;28;20362;-87
2021/07/23 06:50:26;;;;;;;;;;;18.70;94.30;;;;;;5011875;28;19917;-88
2021/07/23 06:52:52;;;;;;;;;;;18.70;94.00;;;;;;5013196;28;20401;-88
2021/07/23 06:55:17;;;;;;;;;;;18.70;94.00;;;;;;5012750;28;19960;-87
2021/07/23 06:57:46;;;;;;;;;;;18.70;94.00;;;;;;5012938;28;20115;-88
2021/07/23 07:00:11;;;;;;;;;;;18.80;94.10;;;;;;5012240;28;20416;-87
2021/07/23 07:02:37;;;;;;;;;;;18.80;94.00;;;;;;5011462;28;19909;-87
2021/07/23 07:05:03;;;;;;;;;;;18.90;94.00;;;;;;5011871;28;19920;-88
2021/07/23 07:07:31;;;;;;;;;;;19.00;93.50;;;;;;5011713;28;19917;-88
2021/07/23 07:09:57;;;;;;;;;;;19.00;93.30;;;;;;5013055;28;19952;-88
2021/07/23 07:12:22;;;;;;;;;;;19.00;93.50;;;;;;5014123;28;20290;-88
2021/07/23 07:14:48;;;;;;;;;;;19.00;93.50;;;;;;5011702;28;19909;-88
2021/07/23 07:17:13;;;;;;;;;;;19.00;93.40;;;;;;5011498;28;19917;-88
2021/07/23 07:19:39;;;;;;;;;;;19.00;93.20;;;;;;5011968;28;19910;-88
2021/07/23 07:22:04;;;;;;;;;;;19.10;93.00;;;;;;5011700;28;19909;-88
2021/07/23 07:24:30;;;;;;;;;;;19.10;93.10;;;;;;5011586;28;19996;-88
2021/07/23 07:26:56;;;;;;;;;;;19.10;92.90;;;;;;5015456;28;19910;-88
2021/07/23 07:29:21;;;;;;;;;;;19.20;92.90;;;;;;5015542;28;20289;-88
2021/07/23 07:31:47;;;;;;;;;;;19.20;93.00;;;;;;5015637;28;19987;-88
2021/07/23 07:34:13;;;;;;;;;;;19.20;93.10;;;;;;5015564;28;20429;-88
2021/07/23 07:36:38;;;;;;;;;;;19.20;93.00;;;;;;5015344;28;19914;-88
2021/07/23 07:39:04;;;;;;;;;;;19.30;92.90;;;;;;5015182;28;19974;-88
2021/07/23 07:41:30;;;;;;;;;;;19.30;92.90;;;;;;5016928;28;19910;-88
2021/07/23 07:43:55;;;;;;;;;;;19.30;92.90;;;;;;5015421;28;19916;-88
2021/07/23 07:46:21;;;;;;;;;;;19.30;92.70;;;;;;5015163;28;19910;-89
2021/07/23 07:48:47;;;;;;;;;;;19.40;92.40;;;;;;5015225;28;20000;-88
2021/07/23 07:51:12;;;;;;;;;;;19.40;92.30;;;;;;5015221;28;19968;-88
2021/07/23 07:53:38;;;;;;;;;;;19.30;92.00;;;;;;5015089;28;19957;-88
2021/07/23 07:56:07;;;;;;;;;;;19.40;91.90;;;;;;5016256;28;19977;-88
2021/07/23 07:58:32;;;;;;;;;;;19.40;92.10;;;;;;5014834;28;19916;-89
2021/07/23 08:00:58;;;;;;;;;;;19.40;92.20;;;;;;5014169;28;20321;-88
2021/07/23 08:03:26;;;;;;;;;;;19.40;92.10;;;;;;5014645;28;20015;-89
2021/07/23 08:05:56;;;;;;;;;;;19.40;92.20;;;;;;5014508;28;20497;-89
2021/07/23 08:08:22;;;;;;;;;;;19.50;92.30;;;;;;5014682;28;19945;-88
2021/07/23 08:10:48;;;;;;;;;;;19.50;92.30;;;;;;5014204;28;19910;-88
2021/07/23 08:13:16;;;;;;;;;;;19.60;92.10;;;;;;5014741;28;19940;-88
2021/07/23 08:15:44;;;;;;;;;;;19.60;91.70;;;;;;5014755;28;20275;-88
2021/07/23 08:18:09;;;;;;;;;;;19.60;91.90;;;;;;5014679;28;20366;-88
2021/07/23 08:20:37;;;;;;;;;;;19.60;92.10;;;;;;5016107;28;19933;-88
2021/07/23 08:23:03;;;;;;;;;;;19.70;92.00;;;;;;5018815;28;19992;-88
2021/07/23 08:25:29;;;;;;;;;;;19.70;91.30;;;;;;5019348;28;19913;-88
2021/07/23 08:27:54;;;;;;;;;;;19.70;91.40;;;;;;5016814;28;19917;-87
2021/07/23 08:30:20;;;;;;;;;;;19.70;91.40;;;;;;5014980;28;19909;-88
2021/07/23 08:32:46;;;;;;;;;;;19.80;91.30;;;;;;5016196;28;19909;-88
2021/07/23 08:35:13;;;;;;;;;;;19.80;91.40;;;;;;5014385;28;19918;-88
2021/07/23 08:37:42;;;;;;;;;;;19.80;91.60;;;;;;5013645;28;19917;-88
2021/07/23 08:40:08;;;;;;;;;;;19.80;91.30;;;;;;5013814;28;20111;-88
2021/07/23 08:42:35;;;;;;;;;;;19.80;91.20;;;;;;5013957;28;19909;-88
2021/07/23 08:45:01;;;;;;;;;;;19.90;91.40;;;;;;5014017;28;19924;-88
2021/07/23 08:47:28;;;;;;;;;;;19.90;91.40;;;;;;5013802;28;19909;-88
2021/07/23 08:49:54;;;;;;;;;;;19.90;91.20;;;;;;5013437;28;19909;-88
2021/07/23 08:52:37;;;;;;;;;;;20.00;90.90;;;;;;5015105;28;19944;-88
2021/07/23 08:55:03;;;;;;;;;;;20.00;90.70;;;;;;5015197;28;20011;-88
2021/07/23 08:57:28;;;;;;;;;;;20.00;90.80;;;;;;5013681;28;19996;-88
2021/07/23 08:59:54;;;;;;;;;;;20.00;90.80;;;;;;5013453;28;19916;-89
2021/07/23 09:02:20;;;;;;;;;;;20.10;90.80;;;;;;5014882;28;19977;-88
2021/07/23 09:04:45;;;;;;;;;;;20.10;90.90;;;;;;5013423;28;20012;-88
2021/07/23 09:07:14;;;;;;;;;;;20.00;90.90;;;;;;5013383;28;19996;-88
2021/07/23 09:09:40;;;;;;;;;;;20.10;90.80;;;;;;5013021;28;19910;-88
2021/07/23 09:12:06;;;;;;;;;;;20.10;90.70;;;;;;5013421;28;19909;-89
2021/07/23 09:14:32;;;;;;;;;;;20.10;90.60;;;;;;5013507;28;20012;-88
2021/07/23 09:16:57;;;;;;;;;;;20.10;90.70;;;;;;5013115;28;20445;-88
2021/07/23 09:19:23;;;;;;;;;;;20.10;90.70;;;;;;5012943;28;19909;-89
2021/07/23 09:21:55;;;;;;;;;;;20.10;90.80;;;;;;5013299;28;19916;-89
2021/07/23 09:24:22;;;;;;;;;;;20.20;91.00;;;;;;5014431;28;19917;-89
2021/07/23 09:26:48;;;;;;;;;;;20.20;91.00;;;;;;5013095;28;20282;-89
2021/07/23 09:29:14;;;;;;;;;;;20.20;90.70;;;;;;5012563;28;19913;-89
2021/07/23 09:31:40;;;;;;;;;;;20.30;90.70;;;;;;5014019;28;19909;-89
2021/07/23 09:34:06;;;;;;;;;;;20.30;90.60;;;;;;5013058;28;20279;-88
2021/07/23 09:36:32;;;;;;;;;;;20.30;90.50;;;;;;5014092;28;19914;-89
2021/07/23 09:39:01;;;;;;;;;;;20.30;90.50;;;;;;5012232;28;19917;-89
2021/07/23 09:41:27;;;;;;;;;;;20.40;90.50;;;;;;5012679;28;19914;-89
2021/07/23 09:44:00;;;;;;;;;;;20.40;90.50;;;;;;5012901;28;20012;-88
2021/07/23 09:46:26;;;;;;;;;;;20.50;90.30;;;;;;5013849;28;19909;-89
2021/07/23 09:48:53;;;;;;;;;;;20.50;90.20;;;;;;5011374;28;19913;-88
2021/07/23 09:51:19;;;;;;;;;;;20.60;90.20;;;;;;5012664;28;19909;-89
2021/07/23 09:53:45;;;;;;;;;;;20.60;90.10;;;;;;5014049;28;19910;-88
2021/07/23 09:56:13;;;;;;;;;;;20.60;90.00;;;;;;5012786;28;19960;-89
2021/07/23 09:58:44;;;;;;;;;;;20.60;89.70;;;;;;5012627;28;19909;-88
2021/07/23 10:01:21;;;;;;;;;;;20.60;90.00;;;;;;5013026;28;19920;-89
2021/07/23 10:03:48;;;;;;;;;;;20.60;90.10;;;;;;5012471;28;19956;-89
2021/07/23 10:06:16;;;;;;;;;;;20.60;89.60;;;;;;5013436;28;19909;-89
2021/07/23 10:08:52;;;;;;;;;;;20.60;89.60;;;;;;5012276;28;20013;-88
2021/07/23 10:11:19;;;;;;;;;;;20.60;89.90;;;;;;5011807;28;19909;-89
2021/07/23 10:13:45;;;;;;;;;;;20.70;89.30;;;;;;5013398;28;19917;-89
2021/07/23 10:16:11;;;;;;;;;;;20.70;89.00;;;;;;5023550;28;19949;-88
2021/07/23 10:18:38;;;;;;;;;;;20.70;89.30;;;;;;5011978;28;19921;-88
2021/07/23 10:21:04;;;;;;;;;;;20.70;89.20;;;;;;5011339;28;19917;-88
2021/07/23 10:23:29;;;;;;;;;;;20.80;90.00;;;;;;5011919;28;19909;-87
2021/07/23 10:25:56;;;;;;;;;;;20.80;90.00;;;;;;5013352;28;19909;-88
2021/07/23 10:28:38;;;;;;;;;;;20.80;89.90;;;;;;5011993;28;19920;-88
2021/07/23 10:31:24;;;;;;;;;;;20.90;89.00;;;;;;5012672;28;19964;-88
2021/07/23 10:33:50;;;;;;;;;;;20.90;88.90;;;;;;5009098;28;19909;-88
2021/07/23 10:36:27;;;;;;;;;;;20.90;89.30;;;;;;5011617;28;19915;-88
2021/07/23 10:39:05;;;;;;;;;;;20.90;89.10;;;;;;5012566;28;19937;-89
2021/07/23 10:41:31;;;;;;;;;;;21.00;88.60;;;;;;5012899;28;19972;-88
2021/07/23 10:43:56;;;;;;;;;;;20.90;88.50;;;;;;5011719;28;20251;-88
2021/07/23 10:46:40;;;;;;;;;;;21.00;88.00;;;;;;5011601;28;19916;-87
2021/07/23 10:49:06;;;;;;;;;;;21.00;87.60;;;;;;5012473;28;19947;-87
2021/07/23 10:51:44;;;;;;;;;;;21.00;88.20;;;;;;5011555;28;20015;-88
2021/07/23 10:54:10;;;;;;;;;;;21.00;89.00;;;;;;5011388;28;19917;-88
2021/07/23 10:56:58;;;;;;;;;;;21.00;88.70;;;;;;5011572;28;19909;-88
2021/07/23 10:59:39;;;;;;;;;;;21.10;88.60;;;;;;5010781;28;19909;-88
2021/07/23 11:02:10;;;;;;;;;;;21.10;87.60;;;;;;5011461;28;20238;-87
2021/07/23 11:04:36;;;;;;;;;;;21.10;87.50;;;;;;5011472;28;19909;-88
2021/07/23 11:07:02;;;;;;;;;;;21.20;87.30;;;;;;5013313;28;19916;-88
2021/07/23 11:09:31;;;;;;;;;;;21.20;87.10;;;;;;5013533;28;19933;-88
2021/07/23 11:12:16;;;;;;;;;;;21.20;86.70;;;;;;5012509;28;20393;-88
2021/07/23 11:14:42;;;;;;;;;;;21.30;85.90;;;;;;5012792;28;19917;-89
2021/07/23 11:17:08;;;;;;;;;;;21.30;85.40;;;;;;5042710;23;19936;-87
2021/07/23 11:19:34;;;;;;;;;;;21.30;84.10;;;;;;5050162;28;19909;-88
2021/07/23 11:22:00;;;;;;;;;;;21.30;84.70;;;;;;5055369;28;19959;-89
2021/07/23 11:24:33;;;;;;;;;;;21.30;83.80;;;;;;5055251;28;19897;-88
2021/07/23 11:26:58;;;;;;;;;;;21.30;84.30;;;;;;5053591;28;19916;-88
2021/07/23 11:29:35;;;;;;;;;;;21.30;85.40;;;;;;5043507;28;20277;-88
2021/07/23 11:32:05;;;;;;;;;;;21.30;86.40;;;;;;5032355;28;19916;-88
2021/07/23 11:34:36;;;;;;;;;;;21.30;85.40;;;;;;5032310;28;19917;-89
2021/07/23 11:37:11;;;;;;;;;;;21.40;84.70;;;;;;5032705;28;20388;-88
2021/07/23 11:39:47;;;;;;;;;;;21.40;84.80;;;;;;5034386;28;19920;-88
2021/07/23 11:42:13;;;;;;;;;;;21.40;85.60;;;;;;5047046;28;19925;-88
2021/07/23 11:44:48;;;;;;;;;;;21.50;85.30;;;;;;5046408;28;19970;-88
2021/07/23 11:47:14;;;;;;;;;;;21.50;85.30;;;;;;5044638;28;19964;-88
2021/07/23 11:49:39;;;;;;;;;;;21.50;85.80;;;;;;5045102;28;19932;-88
2021/07/23 11:52:05;;;;;;;;;;;21.50;85.80;;;;;;5034513;28;19910;-88
2021/07/23 11:54:31;;;;;;;;;;;21.60;85.60;;;;;;5041418;28;19928;-88
2021/07/23 11:57:01;;;;;;;;;;;21.60;84.50;;;;;;5042301;28;19910;-87
2021/07/23 11:59:27;;;;;;;;;;;21.70;84.60;;;;;;5045997;28;19920;-89
2021/07/23 12:01:52;;;;;;;;;;;21.70;83.70;;;;;;5046279;28;19909;-88
2021/07/23 12:04:28;;;;;;;;;;;21.80;83.40;;;;;;5042904;28;19919;-88
2021/07/23 12:06:54;;;;;;;;;;;21.70;83.70;;;;;;5032077;28;19909;-88
2021/07/23 12:09:20;;;;;;;;;;;21.80;84.00;;;;;;5033547;28;19944;-88
2021/07/23 12:11:46;;;;;;;;;;;21.80;83.50;;;;;;5032527;28;19968;-88
2021/07/23 12:14:13;;;;;;;;;;;21.90;83.60;;;;;;5035274;28;19949;-88
2021/07/23 12:16:39;;;;;;;;;;;21.80;83.50;;;;;;5037590;28;20383;-88
2021/07/23 12:19:09;;;;;;;;;;;21.90;82.70;;;;;;5038250;28;19939;-87
2021/07/23 12:21:35;;;;;;;;;;;21.90;82.10;;;;;;5034485;28;20016;-88
2021/07/23 12:24:07;;;;;;;;;;;22.00;81.90;;;;;;5034871;28;19910;-88
2021/07/23 12:26:34;;;;;;;;;;;22.00;82.30;;;;;;5034120;28;20309;-87
2021/07/23 12:29:00;;;;;;;;;;;22.10;81.50;;;;;;5033967;28;20326;-88
2021/07/23 12:31:26;;;;;;;;;;;22.20;80.70;;;;;;5034164;28;19998;-88
2021/07/23 12:34:04;;;;;;;;;;;22.30;80.00;;;;;;5034305;28;19916;-88
2021/07/23 12:36:29;;;;;;;;;;;22.40;79.60;;;;;;5034128;28;20135;-87
2021/07/23 12:39:01;;;;;;;;;;;22.60;80.40;;;;;;5033601;28;20251;-88
2021/07/23 12:41:27;;;;;;;;;;;22.80;79.50;;;;;;5033961;28;19920;-88
2021/07/23 12:44:14;;;;;;;;;;;22.90;78.50;;;;;;5035060;28;19909;-88
2021/07/23 12:46:50;;;;;;;;;;;23.10;77.30;;;;;;5033834;28;20392;-88
2021/07/23 12:49:19;;;;;;;;;;;23.20;76.60;;;;;;5033567;28;20111;-88
2021/07/23 12:51:46;;;;;;;;;;;23.30;75.60;;;;;;5033811;28;19975;-88
2021/07/23 12:54:12;;;;;;;;;;;23.30;74.80;;;;;;5034920;28;19909;-88
2021/07/23 12:56:38;;;;;;;;;;;23.20;74.50;;;;;;5033499;28;19917;-88
2021/07/23 12:59:24;;;;;;;;;;;23.10;75.00;;;;;;5033291;28;19915;-88
2021/07/23 13:01:50;;;;;;;;;;;23.10;74.70;;;;;;5033563;28;20400;-88
2021/07/23 13:04:15;;;;;;;;;;;23.00;73.90;;;;;;5033492;28;19955;-88
2021/07/23 13:06:41;;;;;;;;;;;22.90;74.20;;;;;;5033360;28;19932;-88
2021/07/23 13:09:06;;;;;;;;;;;22.90;73.80;;;;;;5033033;28;19913;-89
2021/07/23 13:11:33;;;;;;;;;;;22.90;74.50;;;;;;5033272;28;19916;-88
2021/07/23 13:13:59;;;;;;;;;;;22.80;75.60;;;;;;5033386;28;19917;-88
2021/07/23 13:16:24;;;;;;;;;;;22.80;74.60;;;;;;5033421;28;19916;-88
2021/07/23 13:18:50;;;;;;;;;;;22.80;75.20;;;;;;5032878;28;19910;-88
2021/07/23 13:21:17;;;;;;;;;;;22.80;75.70;;;;;;5034206;28;19909;-88
2021/07/23 13:23:43;;;;;;;;;;;22.80;75.40;;;;;;5033051;28;19944;-88
2021/07/23 13:26:08;;;;;;;;;;;22.80;75.30;;;;;;5033074;28;19909;-88
2021/07/23 13:28:35;;;;;;;;;;;22.70;76.00;;;;;;5032983;28;19918;-88
2021/07/23 13:31:02;;;;;;;;;;;22.70;76.50;;;;;;5032373;28;20281;-88
2021/07/23 13:33:28;;;;;;;;;;;22.80;76.30;;;;;;5032827;28;19936;-88
2021/07/23 13:36:02;;;;;;;;;;;22.80;74.80;;;;;;5032779;28;19913;-88
2021/07/23 13:38:31;;;;;;;;;;;22.90;74.20;;;;;;5033046;28;19913;-88
2021/07/23 13:40:58;;;;;;;;;;;22.90;74.60;;;;;;5032538;28;20229;-88
2021/07/23 13:43:23;;;;;;;;;;;22.90;75.50;;;;;;5033146;28;20012;-88
2021/07/23 13:45:50;;;;;;;;;;;23.00;75.10;;;;;;5033424;28;20385;-88
2021/07/23 13:48:15;;;;;;;;;;;23.00;75.50;;;;;;5033174;28;19915;-88
2021/07/23 13:50:41;;;;;;;;;;;23.00;75.10;;;;;;5034053;28;19909;-88
2021/07/23 13:53:07;;;;;;;;;;;23.00;75.20;;;;;;5033494;28;19909;-88
2021/07/23 13:55:32;;;;;;;;;;;23.00;75.10;;;;;;5033860;28;19972;-88
2021/07/23 13:57:58;;;;;;;;;;;23.00;73.40;;;;;;5034758;28;19909;-88
2021/07/23 14:00:24;;;;;;;;;;;23.10;73.50;;;;;;5032126;28;19916;-88
2021/07/23 14:02:49;;;;;;;;;;;23.20;72.00;;;;;;5032297;28;19909;-87
2021/07/23 14:05:15;;;;;;;;;;;23.40;72.30;;;;;;5032465;28;19955;-88
2021/07/23 14:07:40;;;;;;;;;;;23.60;72.50;;;;;;5032445;28;20369;-88
2021/07/23 14:10:07;;;;;;;;;;;23.70;72.50;;;;;;5031859;28;19979;-88
2021/07/23 14:12:34;;;;;;;;;;;23.90;70.70;;;;;;5032077;28;19955;-88
2021/07/23 14:15:00;;;;;;;;;;;24.00;69.90;;;;;;5032174;28;20408;-88